Pays
Station

 

Conditions  météo  pour  Ephrata, Ephrata Municipal Airport  -  Etats-Unis    Etats-Unis

  
-5 °C
    
 
 

METAR pour Ephrata, Ephrata Municipal Airport :

KEPH 221653Z AUTO 04003KT 3SM BR OVC005 M05/M07 A3002 RMK AO2 SLP184 T10501067

 

Voici le bulletin pour Ephrata, Ephrata Municipal Airport - Etats-Unis.
 
Le bulletin a été fait il y a 5 minutes, à 16:53 UTC .
Le vent soufflait à la vitesse de 1.5 mètres par seconde de Nord-est (040°).
 
La température était de -5 °C, avec un point de rosée à -7 °C.
La température ressentie était de -7 °C.
 
La pression atmosphérique était de 1017 hPa.
L'humidité relative était de 85.8%.
 
Le ciel était nuageux à partir d'une hauteur de 152 mètres
 
La visibilité globale était de 4828 mètres.
 
Actuellement brume.

 
 
 

Pays :   A   B   C   D   E   F   G   H   I   J   K   L   M   N   O   P   Q   R   S   T   U   V   W   Y   Z

 

Partenaires :  Info Météo avec Met'info
Météo Marine avec MeteoMarine.net
Infos Site  |  Infos Légales  |  Crédits  |  Confidentialité
Contactez-nous  |  Ajouter aux favoris
© 2013-2019 METAR - Tous droits réservés